Hlavní strana
METAR-TAF:

METAR-TAF

Letiště :

Tchaj-nan, Tchaj-wan

zeměpisná šířka: 22-57-01N, zeměpisná délka: 120-12-20E, výška: 19 m

Aktuální stav počasí

Zpráva byla vytvořena před 22 minutami, v 23:00 UTC
Východoseverovýchodní vítr 2 kt
Teplota 27°C
Vlhkost vzduchu 84%
Tlak 1010 hPa
Viditelnost 10 km a více
Skoro jasno ve výšce 1200 ft

METAR: RCNN 222300Z 07002KT 9999 FEW012 27/24 Q1010 NOSIG RMK A2985

Čas: 07:22 (23:22 UTC)

Předpověď počasí

Zpráva byla vytvořena před 6 hodinami a 22 minutami, v 17:00 UTC
Předpověď platná od 22 v 18 UTC do 23 v 18 UTC
Východní vítr 4 kt
Viditelnost 10 km a více
Skoro jasno ve výšce 1200 ft
Polojasno ve výšce 4000 ft
Dočasný
od 22 v 21 UTC do 22 v 24 UTC
Viditelnost: 8000 m
Skoro jasno ve výšce 1200 ft
Oblačno až skoro zataženo ve výšce 6000 ft
Změna
od 23 v 01 UTC do 23 v 04 UTC
Západní vítr 10 kt

TAF: RCNN 221700Z 2218/2318 09004KT 9999 FEW012 SCT040 TX32/23066Z TN23/2220Z TEMPO 2221/2224 8000 FEW012 BKN060 BECMG 2301/2304 27010KT

Stav a předpovědi počasí z více než 4 000 letišť (zprávy METAR a TAF).

Červené a žluté tečky na mapě představují dostupné meteorologické stanice.

Když kurzor umístíte na tečku, zobrazí se název stanice.

Pak kliknutím zobrazíte stav a předpověď počasí.

Chcete-li změnit mapu, kliknutím na zelené tlačítko se znaménkem +mapu přiblížíte, kliknutím na zelené tlačítko se znaménkem – mapu oddálíte a kliknutím na zelené šipky přejdete na sousední mapy.


METAR-TAF: